createdAt,value
2018-08-17T00:01:56.279Z,33.90
2018-08-17T00:04:24.624Z,34.00
2018-08-17T00:06:52.912Z,34.00
2018-08-17T00:09:21.161Z,34.00
2018-08-17T00:11:49.385Z,34.10
2018-08-17T00:14:17.761Z,34.40
2018-08-17T00:16:45.995Z,34.20
2018-08-17T00:19:14.317Z,34.60
2018-08-17T00:21:42.523Z,34.50
2018-08-17T00:24:11.594Z,34.50
2018-08-17T00:26:40.338Z,34.60
2018-08-17T00:29:08.785Z,34.30
2018-08-17T00:31:37.464Z,34.80
2018-08-17T00:34:05.763Z,35.00
2018-08-17T00:36:34.042Z,35.00
2018-08-17T00:39:02.295Z,35.10
2018-08-17T00:41:30.498Z,35.30
2018-08-17T00:43:58.721Z,35.30
2018-08-17T00:46:26.956Z,35.40
2018-08-17T00:48:55.259Z,35.50
2018-08-17T00:51:23.575Z,35.50
2018-08-17T00:53:51.852Z,35.30
2018-08-17T00:56:20.103Z,35.20
2018-08-17T00:58:48.304Z,35.20
2018-08-17T01:01:16.690Z,35.60
2018-08-17T01:03:45.008Z,36.40
2018-08-17T01:06:13.542Z,35.70
2018-08-17T01:08:41.777Z,35.50
2018-08-17T01:11:10.118Z,35.70
2018-08-17T01:13:38.403Z,35.70
2018-08-17T01:16:06.615Z,35.70
2018-08-17T01:18:34.878Z,35.60
2018-08-17T01:21:03.126Z,35.70
2018-08-17T01:23:31.366Z,35.80
2018-08-17T01:25:59.574Z,35.90
2018-08-17T01:28:27.820Z,35.80
2018-08-17T01:30:56.075Z,36.00
2018-08-17T01:33:24.453Z,36.00
2018-08-17T01:35:52.741Z,36.00
2018-08-17T01:38:20.912Z,36.20
2018-08-17T01:40:49.109Z,36.00
2018-08-17T01:43:17.362Z,36.20
2018-08-17T01:45:46.038Z,36.10
2018-08-17T01:48:14.293Z,36.20
2018-08-17T01:50:42.485Z,36.40
2018-08-17T01:53:10.781Z,36.60
2018-08-17T01:55:39.189Z,36.50
2018-08-17T01:58:07.547Z,36.40
2018-08-17T02:00:35.770Z,36.50
2018-08-17T02:03:03.992Z,36.70
2018-08-17T02:05:32.473Z,36.60
2018-08-17T02:08:00.853Z,36.50
2018-08-17T02:10:29.282Z,36.90
2018-08-17T02:12:57.478Z,36.90
2018-08-17T02:15:25.836Z,36.80
2018-08-17T02:17:54.135Z,36.70
2018-08-17T02:20:22.353Z,36.90
2018-08-17T02:22:50.561Z,36.90
2018-08-17T02:25:18.919Z,37.00
2018-08-17T02:27:47.232Z,37.00
2018-08-17T02:30:15.549Z,37.10
2018-08-17T02:32:43.771Z,37.80
2018-08-17T02:35:11.970Z,37.10
2018-08-17T02:37:40.350Z,37.00
2018-08-17T02:40:08.824Z,37.20
2018-08-17T02:42:37.039Z,37.10
2018-08-17T02:45:05.817Z,37.10
2018-08-17T02:47:34.038Z,37.30
2018-08-17T02:50:02.402Z,37.30
2018-08-17T02:52:30.700Z,37.50
2018-08-17T02:54:58.893Z,37.10
2018-08-17T02:57:27.705Z,37.40
2018-08-17T02:59:55.965Z,37.50
2018-08-17T03:02:24.226Z,37.40
2018-08-17T03:04:52.458Z,37.30
2018-08-17T03:07:20.690Z,37.30
2018-08-17T03:09:48.920Z,37.30
2018-08-17T03:12:17.797Z,37.20
2018-08-17T03:14:46.195Z,37.40
2018-08-17T03:17:14.413Z,37.40
2018-08-17T03:19:42.601Z,37.40
2018-08-17T03:22:10.813Z,37.20
2018-08-17T03:24:39.093Z,37.30
2018-08-17T03:27:07.431Z,37.40
2018-08-17T03:29:35.662Z,37.60
2018-08-17T03:32:04.781Z,37.70
2018-08-17T03:34:33.233Z,37.90
2018-08-17T03:37:02.449Z,37.80
2018-08-17T03:39:30.667Z,37.70
2018-08-17T03:41:58.837Z,38.00
2018-08-17T03:44:27.044Z,38.00
2018-08-17T03:46:55.595Z,38.10
2018-08-17T03:49:23.814Z,38.20
2018-08-17T03:51:52.034Z,38.20
2018-08-17T03:54:20.255Z,38.30
2018-08-17T03:56:49.153Z,38.30
2018-08-17T03:59:17.387Z,39.00
2018-08-17T04:01:45.681Z,38.90
2018-08-17T04:04:13.869Z,38.30
2018-08-17T04:06:42.182Z,38.60
2018-08-17T04:09:11.390Z,38.60
2018-08-17T04:11:40.069Z,38.60
2018-08-17T04:14:08.895Z,38.50
2018-08-17T04:16:37.124Z,38.40
2018-08-17T04:19:05.460Z,38.40
2018-08-17T04:21:33.698Z,38.20
2018-08-17T04:24:02.044Z,38.20
2018-08-17T04:26:30.285Z,38.40
2018-08-17T04:28:58.865Z,38.40
2018-08-17T04:31:27.046Z,38.40
2018-08-17T04:33:55.909Z,38.20
2018-08-17T04:36:24.224Z,38.40
2018-08-17T04:38:52.418Z,38.50
2018-08-17T04:41:20.695Z,38.40
2018-08-17T04:43:48.934Z,39.10
2018-08-17T04:46:17.154Z,38.40
2018-08-17T04:48:45.471Z,38.40
2018-08-17T04:51:13.627Z,38.40
2018-08-17T04:53:41.861Z,38.40
2018-08-17T04:56:10.223Z,38.40
2018-08-17T04:58:38.557Z,38.20
2018-08-17T05:01:06.766Z,38.00
2018-08-17T05:03:34.977Z,37.90
2018-08-17T05:06:03.206Z,37.90
2018-08-17T05:08:31.537Z,37.40
2018-08-17T05:10:59.781Z,37.30
2018-08-17T05:13:27.974Z,37.60
2018-08-17T05:15:56.187Z,37.40
2018-08-17T05:18:24.425Z,37.60
2018-08-17T05:20:52.660Z,37.70
2018-08-17T05:23:20.887Z,37.50
2018-08-17T05:25:49.126Z,37.50
2018-08-17T05:28:17.417Z,37.50
2018-08-17T05:30:45.617Z,37.50
2018-08-17T05:33:14.621Z,37.40
2018-08-17T05:35:42.835Z,37.70
2018-08-17T05:38:11.049Z,37.70
2018-08-17T05:40:39.349Z,37.90
2018-08-17T05:43:07.501Z,38.00
2018-08-17T05:45:35.736Z,37.90
2018-08-17T05:48:03.918Z,38.00
2018-08-17T05:50:34.041Z,38.00
2018-08-17T05:53:03.256Z,38.10
2018-08-17T05:55:31.688Z,38.10
2018-08-17T05:57:59.870Z,38.00
2018-08-17T06:00:28.055Z,37.70
2018-08-17T06:02:56.262Z,37.60
2018-08-17T06:05:24.557Z,36.90
2018-08-17T06:07:52.894Z,37.30
2018-08-17T06:10:21.055Z,37.00
2018-08-17T06:12:49.236Z,37.10
2018-08-17T06:15:17.548Z,36.60
2018-08-17T06:17:46.279Z,36.50
2018-08-17T06:20:14.457Z,36.50
2018-08-17T06:22:42.646Z,36.60
2018-08-17T06:25:12.377Z,36.40
2018-08-17T06:27:41.378Z,35.70
2018-08-17T06:30:15.841Z,35.70
2018-08-17T06:32:44.247Z,35.60
2018-08-17T06:35:13.357Z,34.90
2018-08-17T06:37:42.361Z,34.60
2018-08-17T06:40:10.904Z,34.90
2018-08-17T06:42:39.347Z,34.70
2018-08-17T06:45:09.176Z,34.30
2018-08-17T06:47:37.387Z,34.00
2018-08-17T06:50:07.087Z,34.10
2018-08-17T06:52:35.269Z,34.10
2018-08-17T06:55:03.468Z,34.00
2018-08-17T06:57:31.711Z,33.60
2018-08-17T06:59:59.894Z,33.70
2018-08-17T07:02:28.148Z,33.50
2018-08-17T07:04:56.615Z,33.10
2018-08-17T07:07:24.913Z,33.30
2018-08-17T07:09:53.107Z,32.90
2018-08-17T07:12:21.294Z,32.50
2018-08-17T07:14:49.501Z,32.30
2018-08-17T07:17:17.838Z,32.10
2018-08-17T07:19:46.131Z,31.80
2018-08-17T07:22:14.301Z,30.80
2018-08-17T07:24:42.493Z,29.70
2018-08-17T07:27:10.817Z,28.50
2018-08-17T07:29:39.187Z,27.90
2018-08-17T07:32:07.450Z,27.50
2018-08-17T07:34:35.615Z,27.40
2018-08-17T07:37:04.282Z,27.00
2018-08-17T07:39:32.672Z,26.90
2018-08-17T07:42:00.929Z,26.40
2018-08-17T07:44:29.135Z,26.70
2018-08-17T07:46:57.326Z,26.70
2018-08-17T07:49:25.772Z,26.30
2018-08-17T07:51:53.994Z,26.40
2018-08-17T07:54:22.183Z,26.00
2018-08-17T07:56:50.412Z,25.30
2018-08-17T07:59:18.611Z,25.10
2018-08-17T08:01:47.106Z,24.50
2018-08-17T08:04:15.446Z,24.30
2018-08-17T08:06:43.633Z,23.70
2018-08-17T08:09:11.861Z,23.20
2018-08-17T08:11:42.011Z,22.50
2018-08-17T08:14:11.026Z,22.30
2018-08-17T08:16:39.317Z,21.40
2018-08-17T08:19:10.723Z,20.40
2018-08-17T08:21:39.178Z,19.30
2018-08-17T08:24:07.383Z,18.50
2018-08-17T08:26:35.826Z,17.70
2018-08-17T08:29:04.046Z,16.90
2018-08-17T08:31:32.309Z,16.60
2018-08-17T08:34:00.862Z,15.90
2018-08-17T08:36:29.472Z,16.10
2018-08-17T08:38:57.738Z,15.40
2018-08-17T08:41:26.105Z,14.80
2018-08-17T08:43:54.338Z,14.90
2018-08-17T08:46:22.575Z,14.20
2018-08-17T08:48:50.793Z,13.90
2018-08-17T08:51:19.009Z,13.50
2018-08-17T08:53:47.702Z,13.10
2018-08-17T08:56:15.909Z,13.00
2018-08-17T08:58:44.103Z,13.10
2018-08-17T09:01:12.348Z,13.00
2018-08-17T09:03:40.754Z,13.50
2018-08-17T09:06:09.203Z,13.10
2018-08-17T09:08:37.390Z,12.90
2018-08-17T09:11:05.980Z,12.90
2018-08-17T09:13:34.231Z,12.80
2018-08-17T09:16:03.093Z,12.30
2018-08-17T09:18:31.432Z,12.30
2018-08-17T09:20:59.695Z,12.20
2018-08-17T09:23:27.921Z,11.90
2018-08-17T09:25:56.161Z,11.70
2018-08-17T09:28:24.431Z,11.90
2018-08-17T09:30:52.699Z,11.80
2018-08-17T09:33:21.099Z,11.90
2018-08-17T09:35:49.299Z,12.00
2018-08-17T09:38:17.823Z,11.60
2018-08-17T09:40:46.390Z,11.60
2018-08-17T09:43:14.601Z,11.60
2018-08-17T09:45:42.849Z,11.80
2018-08-17T09:48:11.098Z,11.90
2018-08-17T09:50:39.472Z,11.70
2018-08-17T09:53:07.710Z,11.60
2018-08-17T09:55:35.928Z,11.60
2018-08-17T09:58:04.130Z,11.80
2018-08-17T10:00:37.737Z,11.40
2018-08-17T10:03:11.358Z,11.40
2018-08-17T10:05:40.995Z,11.50
2018-08-17T10:08:14.551Z,11.30
2018-08-17T10:10:43.070Z,11.10
2018-08-17T10:13:11.297Z,11.40
2018-08-17T10:15:42.217Z,10.80
2018-08-17T10:18:10.946Z,10.70
2018-08-17T10:20:39.348Z,10.80
2018-08-17T10:23:13.335Z,11.10
2018-08-17T10:25:41.541Z,10.90
2018-08-17T10:28:10.398Z,11.40
2018-08-17T10:30:38.696Z,11.00
2018-08-17T10:33:06.999Z,11.10
2018-08-17T10:35:36.174Z,11.00
2018-08-17T10:38:05.639Z,11.40
2018-08-17T10:40:33.883Z,10.60
2018-08-17T10:43:03.390Z,10.50
2018-08-17T10:45:32.588Z,10.20
2018-08-17T10:48:00.849Z,10.10
2018-08-17T10:50:30.442Z,9.80
2018-08-17T10:52:59.974Z,9.80
2018-08-17T10:55:40.623Z,9.80
2018-08-17T10:58:11.894Z,10.10
2018-08-17T11:00:40.405Z,10.00
2018-08-17T11:03:08.812Z,9.60
2018-08-17T11:05:37.096Z,9.80
2018-08-17T11:08:05.408Z,9.80
2018-08-17T11:10:33.782Z,10.10
2018-08-17T11:13:02.062Z,10.20
2018-08-17T11:15:31.056Z,9.90
2018-08-17T11:18:01.883Z,9.70
2018-08-17T11:20:30.630Z,9.60
2018-08-17T11:23:00.536Z,9.60
2018-08-17T11:25:28.866Z,9.50
2018-08-17T11:27:57.180Z,9.80
2018-08-17T11:30:26.516Z,9.70
2018-08-17T11:32:55.567Z,9.80
2018-08-17T11:35:28.852Z,9.80
2018-08-17T11:37:57.707Z,9.50
2018-08-17T11:40:26.612Z,9.50
2018-08-17T11:42:55.745Z,9.50
2018-08-17T11:45:25.922Z,9.50
2018-08-17T11:47:55.795Z,9.80
2018-08-17T11:50:26.044Z,9.40
2018-08-17T11:53:00.004Z,9.40
2018-08-17T11:55:30.118Z,9.40
2018-08-17T11:57:58.858Z,9.40
2018-08-17T12:00:31.383Z,9.40
2018-08-17T12:02:59.678Z,9.40
2018-08-17T12:05:27.910Z,9.30
2018-08-17T12:07:56.320Z,9.60
2018-08-17T12:10:24.587Z,9.30
2018-08-17T12:12:52.803Z,9.30
2018-08-17T12:15:21.047Z,8.90
2018-08-17T12:17:49.290Z,9.00
2018-08-17T12:20:17.553Z,8.90
2018-08-17T12:22:45.925Z,8.90
2018-08-17T12:25:14.138Z,9.70
2018-08-17T12:27:46.758Z,9.30
2018-08-17T12:30:15.058Z,9.30
2018-08-17T12:32:43.270Z,9.20
2018-08-17T12:35:11.553Z,9.40
2018-08-17T12:37:39.821Z,9.50
2018-08-17T12:40:08.132Z,9.60
2018-08-17T12:42:37.122Z,9.40
2018-08-17T12:45:11.034Z,9.40
2018-08-17T12:47:39.786Z,9.40
2018-08-17T12:50:08.034Z,9.60
2018-08-17T12:52:37.095Z,9.30
2018-08-17T12:55:06.236Z,9.30
2018-08-17T12:57:41.933Z,9.20
2018-08-17T13:00:12.598Z,9.10
2018-08-17T13:02:41.714Z,9.20
2018-08-17T13:05:10.786Z,9.50
2018-08-17T13:07:39.837Z,9.90
2018-08-17T13:10:09.005Z,10.30
2018-08-17T13:12:38.099Z,10.70
2018-08-17T13:15:07.084Z,11.60
2018-08-17T13:17:41.192Z,12.00
2018-08-17T13:20:12.843Z,12.40
2018-08-17T13:22:41.897Z,13.10
2018-08-17T13:25:10.227Z,13.50
2018-08-17T13:27:38.833Z,13.60
2018-08-17T13:30:09.401Z,13.80
2018-08-17T13:32:37.661Z,14.10
2018-08-17T13:35:05.887Z,13.70
2018-08-17T13:37:34.926Z,14.00
2018-08-17T13:40:03.333Z,14.70
2018-08-17T13:42:31.457Z,15.10
2018-08-17T13:44:59.738Z,15.40
2018-08-17T13:47:28.013Z,15.70
2018-08-17T13:49:56.914Z,16.20
2018-08-17T13:52:25.839Z,15.70
2018-08-17T13:54:55.383Z,15.00
2018-08-17T13:57:24.365Z,14.40
2018-08-17T13:59:53.500Z,15.70
2018-08-17T14:02:22.406Z,14.40
2018-08-17T14:04:52.106Z,14.50
2018-08-17T14:07:21.181Z,14.80
2018-08-17T14:09:51.010Z,15.20
2018-08-17T14:12:19.901Z,15.20
2018-08-17T14:14:49.365Z,15.80
2018-08-17T14:17:18.213Z,14.60
2018-08-17T14:19:47.123Z,14.50
2018-08-17T14:22:17.568Z,13.70
2018-08-17T14:24:46.480Z,13.50
2018-08-17T14:27:15.350Z,12.50
2018-08-17T14:29:44.261Z,11.90
2018-08-17T14:32:13.077Z,11.70
2018-08-17T14:34:42.093Z,11.60
2018-08-17T14:37:11.144Z,11.10
2018-08-17T14:39:40.011Z,10.90
2018-08-17T14:42:09.041Z,11.00
2018-08-17T14:44:38.009Z,11.20
2018-08-17T14:47:06.794Z,11.70
2018-08-17T14:49:35.602Z,12.40
2018-08-17T14:52:05.806Z,12.10
2018-08-17T14:54:34.935Z,11.70
2018-08-17T14:57:03.917Z,11.60
2018-08-17T14:59:32.658Z,11.50
2018-08-17T15:02:02.047Z,11.50
2018-08-17T15:04:30.289Z,11.40
2018-08-17T15:06:58.498Z,11.00
2018-08-17T15:09:26.724Z,11.40
2018-08-17T15:11:55.218Z,10.90
2018-08-17T15:14:23.553Z,10.70
2018-08-17T15:16:51.876Z,10.90
2018-08-17T15:19:20.123Z,11.20
2018-08-17T15:21:48.530Z,11.00
2018-08-17T15:24:19.916Z,11.00
2018-08-17T15:26:48.382Z,11.00
2018-08-17T15:29:16.991Z,11.10
2018-08-17T15:31:45.218Z,11.00
2018-08-17T15:34:13.493Z,11.30
2018-08-17T15:36:41.714Z,11.10
2018-08-17T15:39:10.209Z,11.10
2018-08-17T15:41:44.056Z,10.80
2018-08-17T15:44:17.573Z,10.70
2018-08-17T15:46:45.941Z,10.80
2018-08-17T15:49:19.984Z,11.10
2018-08-17T15:51:48.663Z,11.00
2018-08-17T15:54:17.012Z,11.10
2018-08-17T15:56:45.336Z,11.40
2018-08-17T15:59:13.795Z,11.30
2018-08-17T16:01:42.113Z,11.60
2018-08-17T16:04:10.498Z,11.40
2018-08-17T16:06:39.289Z,11.60
2018-08-17T16:09:09.412Z,11.30
2018-08-17T16:11:37.854Z,11.50
2018-08-17T16:14:06.381Z,11.70
2018-08-17T16:16:34.790Z,11.90
2018-08-17T16:19:04.060Z,12.00
2018-08-17T16:21:32.843Z,12.20
2018-08-17T16:24:02.554Z,12.30
2018-08-17T16:26:30.876Z,12.90
2018-08-17T16:28:59.333Z,13.70
2018-08-17T16:31:27.590Z,13.70
2018-08-17T16:33:56.015Z,14.40
2018-08-17T16:36:24.382Z,15.30
2018-08-17T16:38:52.643Z,15.80
2018-08-17T16:41:20.871Z,16.30
2018-08-17T16:43:49.164Z,16.60
2018-08-17T16:46:17.451Z,16.70
2018-08-17T16:48:45.763Z,17.20
2018-08-17T16:51:13.975Z,17.10
2018-08-17T16:53:42.410Z,17.40
2018-08-17T16:56:10.797Z,17.70
2018-08-17T16:58:39.125Z,17.60
2018-08-17T17:01:07.411Z,17.90
2018-08-17T17:03:35.637Z,18.00
2018-08-17T17:06:04.906Z,18.20
2018-08-17T17:08:33.437Z,18.50
2018-08-17T17:11:02.585Z,18.70
2018-08-17T17:13:30.835Z,18.50
2018-08-17T17:15:59.053Z,18.60
2018-08-17T17:18:27.338Z,18.80
2018-08-17T17:20:55.868Z,19.00
2018-08-17T17:23:24.173Z,18.90
2018-08-17T17:25:52.491Z,19.20
2018-08-17T17:28:20.776Z,19.20
2018-08-17T17:30:50.492Z,19.20
2018-08-17T17:33:19.115Z,19.40
2018-08-17T17:35:47.422Z,19.40
2018-08-17T17:38:15.727Z,19.50
2018-08-17T17:40:43.974Z,19.60
2018-08-17T17:43:12.204Z,19.70
2018-08-17T17:45:40.973Z,19.70
2018-08-17T17:48:09.629Z,19.80
2018-08-17T17:50:37.890Z,20.00
2018-08-17T17:53:06.287Z,20.20
2018-08-17T17:55:42.942Z,20.00
2018-08-17T17:58:11.607Z,20.10
2018-08-17T18:00:40.126Z,20.00
2018-08-17T18:03:09.807Z,20.00
2018-08-17T18:05:38.033Z,22.80
2018-08-17T18:08:11.853Z,25.00
2018-08-17T18:10:40.626Z,26.10
2018-08-17T18:13:09.235Z,27.00
2018-08-17T18:15:37.469Z,27.90
2018-08-17T18:18:05.709Z,28.80
2018-08-17T18:20:34.142Z,29.50
2018-08-17T18:23:02.554Z,29.90
2018-08-17T18:25:30.793Z,30.00
2018-08-17T18:27:59.061Z,30.00
2018-08-17T18:30:27.349Z,30.10
2018-08-17T18:32:56.835Z,30.40
2018-08-17T18:35:25.555Z,30.40
2018-08-17T18:37:53.791Z,30.80
2018-08-17T18:40:22.103Z,31.20
2018-08-17T18:42:50.462Z,32.00
2018-08-17T18:45:19.038Z,31.30
2018-08-17T18:47:47.584Z,31.20
2018-08-17T18:50:15.793Z,31.10
2018-08-17T18:52:44.057Z,32.20
2018-08-17T18:55:12.210Z,31.30
2018-08-17T18:57:40.766Z,31.50
2018-08-17T19:00:12.355Z,31.80
2018-08-17T19:02:41.887Z,32.00
2018-08-17T19:05:10.839Z,32.10
2018-08-17T19:07:40.001Z,32.30
2018-08-17T19:10:09.659Z,32.40
2018-08-17T19:12:37.854Z,32.60
2018-08-17T19:15:10.657Z,32.60
2018-08-17T19:17:39.014Z,32.50
2018-08-17T19:20:11.827Z,33.10
2018-08-17T19:22:42.193Z,32.30
2018-08-17T19:25:11.966Z,32.20
2018-08-17T19:27:40.951Z,32.20
2018-08-17T19:30:25.039Z,32.50
2018-08-17T19:32:54.567Z,32.40
2018-08-17T19:35:22.798Z,32.60
2018-08-17T19:37:51.818Z,33.10
2018-08-17T19:40:20.641Z,33.10
2018-08-17T19:42:49.372Z,33.30
2018-08-17T19:45:18.059Z,33.00
2018-08-17T19:47:46.283Z,33.40
2018-08-17T19:50:14.642Z,32.60
2018-08-17T19:52:42.964Z,32.60
2018-08-17T19:55:11.251Z,32.30
2018-08-17T19:57:39.671Z,32.40
2018-08-17T20:00:09.785Z,32.40
2018-08-17T20:02:38.014Z,32.30
2018-08-17T20:05:06.520Z,32.50
2018-08-17T20:07:34.810Z,31.90
2018-08-17T20:10:03.086Z,32.00
2018-08-17T20:12:31.383Z,31.20
2018-08-17T20:14:59.586Z,31.00
2018-08-17T20:17:27.822Z,31.10
2018-08-17T20:19:56.310Z,30.90
2018-08-17T20:22:24.629Z,31.10
2018-08-17T20:24:52.925Z,31.00
2018-08-17T20:27:21.143Z,31.10
2018-08-17T20:29:49.433Z,31.10
2018-08-17T20:32:18.526Z,31.10
2018-08-17T20:34:48.603Z,30.90
2018-08-17T20:37:17.643Z,30.20
2018-08-17T20:39:47.084Z,30.70
2018-08-17T20:42:15.378Z,31.20
2018-08-17T20:44:43.582Z,31.10
2018-08-17T20:47:12.342Z,30.90
2018-08-17T20:49:40.829Z,31.20
2018-08-17T20:52:09.862Z,31.30
2018-08-17T20:54:38.073Z,31.70
2018-08-17T20:57:06.324Z,31.30
2018-08-17T20:59:34.569Z,31.10
2018-08-17T21:02:03.757Z,31.20
2018-08-17T21:04:32.166Z,31.00
2018-08-17T21:07:00.405Z,31.10
2018-08-17T21:09:28.685Z,31.30
2018-08-17T21:11:56.962Z,31.40
2018-08-17T21:14:25.609Z,31.70
2018-08-17T21:16:53.917Z,31.60
2018-08-17T21:19:27.523Z,32.10
2018-08-17T21:21:55.862Z,32.10
2018-08-17T21:24:24.212Z,32.20
2018-08-17T21:26:52.418Z,32.60
2018-08-17T21:29:20.766Z,32.70
2018-08-17T21:31:50.641Z,32.40
2018-08-17T21:34:19.186Z,32.50
2018-08-17T21:36:47.597Z,32.80
2018-08-17T21:39:17.655Z,33.20
2018-08-17T21:41:47.204Z,33.70
2018-08-17T21:44:16.674Z,33.70
2018-08-17T21:47:06.610Z,33.80
2018-08-17T21:49:35.714Z,34.00
2018-08-17T21:52:05.928Z,34.00
2018-08-17T21:54:34.818Z,33.90
2018-08-17T21:57:04.121Z,33.80
2018-08-17T21:59:37.793Z,33.80
2018-08-17T22:02:09.218Z,34.10
2018-08-17T22:04:37.458Z,34.00
2018-08-17T22:07:14.745Z,34.20
2018-08-17T22:09:43.576Z,34.90
2018-08-17T22:12:12.328Z,34.00
2018-08-17T22:14:40.991Z,34.20
2018-08-17T22:17:21.045Z,34.70
2018-08-17T22:19:49.306Z,34.60
2018-08-17T22:22:17.841Z,34.30
2018-08-17T22:24:50.396Z,34.50
2018-08-17T22:27:19.301Z,34.60
2018-08-17T22:29:49.252Z,34.50
2018-08-17T22:32:17.531Z,34.70
2018-08-17T22:34:45.986Z,34.80
2018-08-17T22:37:14.222Z,34.80
2018-08-17T22:39:42.398Z,35.10
2018-08-17T22:42:10.827Z,35.20
2018-08-17T22:44:39.025Z,35.40
2018-08-17T22:47:27.278Z,35.30
2018-08-17T22:49:57.122Z,35.00
2018-08-17T22:52:25.650Z,35.30
2018-08-17T22:55:00.102Z,35.40
2018-08-17T22:57:28.961Z,35.20
2018-08-17T23:00:10.909Z,35.30
2018-08-17T23:02:40.309Z,35.20
2018-08-17T23:05:11.054Z,35.10
2018-08-17T23:07:39.277Z,35.00
2018-08-17T23:10:11.045Z,35.30
2018-08-17T23:12:39.247Z,35.20
2018-08-17T23:15:10.173Z,35.20
2018-08-17T23:17:38.696Z,35.60
2018-08-17T23:20:07.413Z,35.90
2018-08-17T23:22:44.026Z,36.20
2018-08-17T23:25:12.322Z,36.50
2018-08-17T23:27:41.194Z,36.80
2018-08-17T23:30:09.686Z,36.90
2018-08-17T23:32:37.883Z,37.10
2018-08-17T23:35:06.318Z,37.40
2018-08-17T23:37:34.709Z,37.50
2018-08-17T23:40:04.450Z,37.60
2018-08-17T23:42:32.847Z,37.40
2018-08-17T23:45:01.054Z,37.70
2018-08-17T23:47:29.258Z,38.10
2018-08-17T23:49:57.478Z,38.10
2018-08-17T23:52:25.990Z,38.10
2018-08-17T23:54:54.353Z,38.40
2018-08-17T23:57:22.563Z,38.40
2018-08-17T23:59:50.758Z,38.50
